ENMS

Mosjøen , Kjærstad Airport

Norway
METAR ENMS 182050Z 20007KT 160V240 CAVOK M08/M15 Q0998 RMK WIND 412FT 21009KT 180V260
Observed Flight Rules
Jan-18 @ 20:50 UTC (7 hours ago) Visual Flight Rules
Wind Visibility Clouds
200° at 7 knots 10,000+ meters
  • Clear skies
Temperatures Readings
Current -8°C / 18°F
Dewpoint -15°C / 5°F
Humidity 58%
Altimeter 29.47" Hg
Pressure 998 hPa
Elevation 70
METAR ENMS 182050Z 20007KT 160V240 CAVOK M08/M15 Q0998 RMK WIND 412FT 21009KT 180V260
Observed Flight Rules
Jan-18 @ 20:50 UTC
(7 hours ago)
VFR
Wind Visibility
200° at 7 knots 10,000+ meters
Clouds
  • Clear skies
Temperature Dewpoint
-8°C / 18°F -15°C / 5°F
Humidity Altimeter Pressure
58% 29.47" Hg 998 hPa